In Rescue
 
Open Full Screen Window  High Contrast Mode
Wind Gusting 14 knots
07
March 01, 2024 3:59 PM CST
Weather Information
Wind Direction
  210 °
Wind Speed
  07 kt (8 mph)
Wind Gust
  14 kt (16 mph)
Variable Wind
170°
230°
Altimeter
29.66 in
Visibility
10 SM
Temperature
11° C
52° F
Dewpoint
-04° C
25° F
Humidity
35%
Sky Condition
Clear
VFR

METAR KCQM 012159Z AUTO 21007G14KT 170V230 10SM CLR 11/M04 A2966 RMK AO2

FAA Disclaimer: The data displayed is for advisory purposes only and is not to be used for flight planning or operations.